Latest Weather Observations for Little Bay

IDN60801

Issued at 11:32 am EDT Friday 15 November 2019 (issued every 10 minutes, with the page automatically refreshed every 10 minutes)

About weather observations | Map of weather stations | Latest weather observations for NSW | Other Formats
Station Details ID: 066051 Name: LITTLE BAY (THE COAST GOLF CLUB) Lat: -33.98 Lon: 151.25 Height: 22.0 m
Data from the previous 72 hours. | See also: Recent months at Little Bay
Date/Time
EDT
Temp
°C
App
Temp
°C
Dew
Point
°C
Rel
Hum
%
Delta-T
°C
Wind Press
QNH
hPa
Press
MSL
hPa
Rain since
9am
mm
Dir  Spd
km/h
Gust
km/h
Spd
kts
Gust
kts
15/11:30am - - - - - WSW 9 13 5 7 - - -
15/11:00am - - - - - WNW 11 19 6 10 - - -
15/10:30am - - - - - NNW 9 15 5 8 - - -
15/10:00am - - - - - WNW 13 24 7 13 - - -
15/09:30am - - - - - WNW 15 28 8 15 - - -
15/09:00am - - - - - WNW 11 20 6 11 - - -
15/08:30am - - - - - NW 7 13 4 7 - - -
15/08:00am - - - - - NW 9 17 5 9 - - -
15/07:30am - - - - - WNW 7 13 4 7 - - -
15/07:00am - - - - - WNW 7 13 4 7 - - -
15/06:30am - - - - - WNW 7 11 4 6 - - -
15/06:00am - - - - - WNW 7 9 4 5 - - -
15/05:30am - - - - - WNW 7 9 4 5 - - -
15/05:00am - - - - - WNW 6 11 3 6 - - -
15/04:30am - - - - - WNW 4 7 2 4 - - -
15/04:00am - - - - - W 7 13 4 7 - - -
15/03:30am - - - - - W 6 7 3 4 - - -
15/03:00am - - - - - W 7 9 4 5 - - -
15/02:30am - - - - - W 7 7 4 4 - - -
15/02:00am - - - - - WNW 9 11 5 6 - - -
15/01:30am - - - - - WNW 2 4 1 2 - - -
15/01:00am - - - - - CALM 0 0 0 0 - - -
15/12:30am - - - - - CALM 0 0 0 0 - - -
15/12:00am - - - - - N 4 6 2 3 - - -
 
Date/Time
EDT
Temp
°C
App
Temp
°C
Dew
Point
°C
Rel
Hum
%
Delta-T
°C
Wind Press
QNH
hPa
Press
MSL
hPa
Rain since
9am
mm
Dir  Spd
km/h
Gust
km/h
Spd
kts
Gust
kts
14/11:30pm - - - - - N 4 6 2 3 - - -
14/11:00pm - - - - - N 6 9 3 5 - - -
14/10:30pm - - - - - N 15 24 8 13 - - -
14/10:00pm - - - - - N 17 26 9 14 - - -
14/09:30pm - - - - - N 19 28 10 15 - - -
14/09:00pm - - - - - N 20 30 11 16 - - -
14/08:30pm - - - - - NNE 13 22 7 12 - - -
14/08:00pm - - - - - N 17 24 9 13 - - -
14/07:30pm - - - - - N 17 24 9 13 - - -
14/07:00pm - - - - - NNE 22 33 12 18 - - -
14/06:30pm - - - - - NNE 20 28 11 15 - - -
14/06:00pm - - - - - NNE 28 39 15 21 - - -
14/05:30pm - - - - - NNE 28 39 15 21 - - -
14/05:00pm - - - - - NNE 32 41 17 22 - - -
14/04:30pm - - - - - NNE 30 39 16 21 - - -
14/04:00pm - - - - - NNE 30 35 16 19 - - -
14/03:30pm - - - - - NNE 30 41 16 22 - - -
14/03:00pm - - - - - NE 28 33 15 18 - - -
14/02:30pm - - - - - NE 19 28 10 15 - - -
14/02:00pm - - - - - NE 19 26 10 14 - - -
14/01:30pm - - - - - NE 20 26 11 14 - - -
14/01:00pm - - - - - ENE 15 20 8 11 - - -
14/12:30pm - - - - - ENE 11 17 6 9 - - -
14/12:00pm - - - - - E 9 13 5 7 - - -
14/11:30am - - - - - SE 11 15 6 8 - - -
14/11:00am - - - - - SE 11 13 6 7 - - -
14/10:30am - - - - - SE 13 17 7 9 - - -
14/10:00am - - - - - S 17 20 9 11 - - -
14/09:30am - - - - - S 17 24 9 13 - - -
14/09:00am - - - - - SW 11 19 6 10 - - -
14/08:30am - - - - - WSW 15 22 8 12 - - -
14/08:00am - - - - - WSW 15 22 8 12 - - -
14/07:30am - - - - - WSW 11 17 6 9 - - -
14/07:00am - - - - - WSW 13 20 7 11 - - -
14/06:30am - - - - - WSW 13 19 7 10 - - -
14/06:00am - - - - - WSW 13 20 7 11 - - -
14/05:30am - - - - - WSW 13 20 7 11 - - -
14/05:00am - - - - - WSW 11 17 6 9 - - -
14/04:30am - - - - - WSW 13 19 7 10 - - -
14/04:00am - - - - - WSW 9 13 5 7 - - -
14/03:30am - - - - - W 11 15 6 8 - - -
14/03:00am - - - - - WSW 9 15 5 8 - - -
14/02:30am - - - - - WSW 15 26 8 14 - - -
14/02:00am - - - - - W 9 15 5 8 - - -
14/01:30am - - - - - WSW 7 15 4 8 - - -
14/01:00am - - - - - W 7 11 4 6 - - -
14/12:30am - - - - - W 2 6 1 3 - - -
14/12:00am - - - - - WNW 6 9 3 5 - - -
 
Date/Time
EDT
Temp
°C
App
Temp
°C
Dew
Point
°C
Rel
Hum
%
Delta-T
°C
Wind Press
QNH
hPa
Press
MSL
hPa
Rain since
9am
mm
Dir  Spd
km/h
Gust
km/h
Spd
kts
Gust
kts
13/11:30pm - - - - - NW 6 6 3 3 - - -
13/11:00pm - - - - - NNW 6 7 3 4 - - -
13/10:30pm - - - - - NNW 9 13 5 7 - - -
13/10:00pm - - - - - N 6 9 3 5 - - -
13/09:30pm - - - - - NNE 6 9 3 5 - - -
13/09:00pm - - - - - N 7 13 4 7 - - -
13/08:30pm - - - - - N 7 13 4 7 - - -
13/08:00pm - - - - - N 11 20 6 11 - - -
13/07:30pm - - - - - NNE 11 17 6 9 - - -
13/07:00pm - - - - - NNE 17 20 9 11 - - -
13/06:30pm - - - - - NE 19 24 10 13 - - -
13/06:00pm - - - - - NE 20 26 11 14 - - -
13/05:30pm - - - - - NE 17 24 9 13 - - -
13/05:00pm - - - - - ENE 19 24 10 13 - - -
13/04:30pm - - - - - NE 17 24 9 13 - - -
13/04:00pm - - - - - NE 17 24 9 13 - - -
13/03:30pm - - - - - ENE 17 24 9 13 - - -
13/03:00pm - - - - - ENE 17 20 9 11 - - -
13/02:30pm - - - - - E 15 20 8 11 - - -
13/02:00pm - - - - - E 17 22 9 12 - - -
13/01:30pm - - - - - ESE 19 22 10 12 - - -
13/01:00pm - - - - - SE 19 24 10 13 - - -
13/12:30pm - - - - - SE 19 22 10 12 - - -
13/12:00pm - - - - - SSE 19 22 10 12 - - -
13/11:30am - - - - - SE 17 20 9 11 - - -
13/11:00am - - - - - S 17 24 9 13 - - -
13/10:30am - - - - - S 17 22 9 12 - - -
13/10:00am - - - - - WSW 13 22 7 12 - - -
13/09:30am - - - - - W 17 28 9 15 - - -
13/09:00am - - - - - WSW 17 28 9 15 - - -
13/08:30am - - - - - WSW 20 32 11 17 - - -
13/08:00am - - - - - WSW 19 28 10 15 - - -
13/07:30am - - - - - WSW 15 24 8 13 - - -
13/07:00am - - - - - WSW 11 17 6 9 - - -
13/06:30am - - - - - SW 11 17 6 9 - - -
13/06:00am - - - - - WSW 11 17 6 9 - - -
13/05:30am - - - - - WSW 17 26 9 14 - - -
13/05:00am - - - - - W 6 9 3 5 - - -
13/04:30am - - - - - WNW 7 9 4 5 - - -
13/04:00am - - - - - WSW 7 9 4 5 - - -
13/03:30am - - - - - SSW 9 15 5 8 - - -
13/03:00am - - - - - SSW 11 17 6 9 - - -
13/02:30am - - - - - S 17 22 9 12 - - -
13/02:00am - - - - - S 20 28 11 15 - - -
13/01:30am - - - - - S 26 37 14 20 - - -
13/01:00am - - - - - S 24 37 13 20 - - -
13/12:30am - - - - - S 28 43 15 23 - - -
13/12:00am - - - - - SSE 32 43 17 23 - - -
 
Date/Time
EDT
Temp
°C
App
Temp
°C
Dew
Point
°C
Rel
Hum
%
Delta-T
°C
Wind Press
QNH
hPa
Press
MSL
hPa
Rain since
9am
mm
Dir  Spd
km/h
Gust
km/h
Spd
kts
Gust
kts
12/11:30pm - - - - - SSE 32 43 17 23 - - -
12/11:00pm - - - - - SSE 33 44 18 24 - - -
12/10:30pm - - - - - S 35 56 19 30 - - -
12/10:27pm - - - - - S 35 56 19 30 - - -
12/10:00pm - - - - - S 37 56 20 30 - - -
12/09:30pm - - - - - S 35 48 19 26 - - -
12/09:00pm - - - - - S 39 52 21 28 - - -
12/08:30pm - - - - - S 41 56 22 30 - - -
12/08:00pm - - - - - S 37 52 20 28 - - -
12/07:46pm - - - - - S 37 56 20 30 - - -
12/07:30pm - - - - - S 37 50 20 27 - - -
12/07:00pm - - - - - SSW 32 50 17 27 - - -
12/06:30pm - - - - - WSW 20 32 11 17 - - -
12/06:00pm - - - - - W 20 35 11 19 - - -
12/05:30pm - - - - - W 24 43 13 23 - - -
12/05:00pm - - - - - W 24 44 13 24 - - -
12/04:49pm - - - - - W 28 48 15 26 - - -
12/04:30pm - - - - - W 24 43 13 23 - - -
12/04:00pm - - - - - WNW 17 33 9 18 - - -
12/03:30pm - - - - - WNW 20 32 11 17 - - -
12/03:00pm - - - - - WNW 20 35 11 19 - - -
12/02:30pm - - - - - WNW 22 44 12 24 - - -
12/02:00pm - - - - - NW 22 35 12 19 - - -
12/01:30pm - - - - - WNW 22 39 12 21 - - -
12/01:00pm - - - - - WNW 20 35 11 19 - - -
12/12:30pm - - - - - WNW 17 32 9 17 - - -
12/12:00pm - - - - - NW 17 30 9 16 - - -

Other formats

Comma delimited format used in spreadsheet applications
http://www.bom.gov.au/fwo/IDN60801/IDN60801.94780.axf

JavaScript Object Notation format (JSON) in row-major order
http://www.bom.gov.au/fwo/IDN60801/IDN60801.94780.json

Data quality

Most of these data are generated automatically and are frequently updated. Quality checks on data are not normally performed. It is possible for incorrect values to appear. Refer to information at About Latest Weather Observations and please check the disclaimer before using these data.